sensor_id;sensor_type;location;lat;lon;timestamp;pressure;altitude;pressure_sealevel;temperature;humidity
25658;BME280;13517;59.320;18.042;2022-11-15T00:00:33;101409.00;;;6.45;100.00
25658;BME280;13517;59.320;18.042;2022-11-15T00:02:58;101387.28;;;6.27;100.00
25658;BME280;13517;59.320;18.042;2022-11-15T00:05:24;101372.28;;;6.21;100.00
25658;BME280;13517;59.320;18.042;2022-11-15T00:07:49;101400.34;;;6.36;100.00
25658;BME280;13517;59.320;18.042;2022-11-15T00:10:15;101385.41;;;6.29;100.00
25658;BME280;13517;59.320;18.042;2022-11-15T00:12:41;101391.63;;;6.31;100.00
25658;BME280;13517;59.320;18.042;2022-11-15T00:15:07;101386.16;;;6.33;100.00
25658;BME280;13517;59.320;18.042;2022-11-15T00:17:32;101328.63;;;5.91;100.00
25658;BME280;13517;59.320;18.042;2022-11-15T00:19:57;101352.28;;;6.05;100.00
25658;BME280;13517;59.320;18.042;2022-11-15T00:22:23;101364.63;;;6.10;100.00
25658;BME280;13517;59.320;18.042;2022-11-15T00:24:48;101327.63;;;5.93;100.00
25658;BME280;13517;59.320;18.042;2022-11-15T00:27:14;101361.31;;;6.02;100.00
25658;BME280;13517;59.320;18.042;2022-11-15T00:29:39;101360.59;;;5.97;100.00
25658;BME280;13517;59.320;18.042;2022-11-15T00:32:09;101370.19;;;6.04;100.00
25658;BME280;13517;59.320;18.042;2022-11-15T00:34:34;101347.47;;;5.88;100.00
25658;BME280;13517;59.320;18.042;2022-11-15T00:37:00;101366.03;;;5.94;100.00
25658;BME280;13517;59.320;18.042;2022-11-15T00:39:25;101385.34;;;6.05;100.00
25658;BME280;13517;59.320;18.042;2022-11-15T00:41:50;101380.44;;;5.91;100.00
25658;BME280;13517;59.320;18.042;2022-11-15T00:44:16;101382.84;;;5.99;100.00
25658;BME280;13517;59.320;18.042;2022-11-15T00:46:41;101367.91;;;5.92;100.00
25658;BME280;13517;59.320;18.042;2022-11-15T00:49:06;101354.75;;;5.84;100.00
25658;BME280;13517;59.320;18.042;2022-11-15T00:51:32;101359.25;;;5.83;100.00
25658;BME280;13517;59.320;18.042;2022-11-15T00:53:57;101383.06;;;5.93;100.00
25658;BME280;13517;59.320;18.042;2022-11-15T00:56:23;101380.28;;;5.96;100.00
25658;BME280;13517;59.320;18.042;2022-11-15T00:58:48;101361.75;;;5.90;100.00
25658;BME280;13517;59.320;18.042;2022-11-15T01:01:14;101382.13;;;5.94;100.00
25658;BME280;13517;59.320;18.042;2022-11-15T01:03:40;101384.81;;;5.94;100.00
25658;BME280;13517;59.320;18.042;2022-11-15T01:06:07;101390.19;;;5.94;100.00
25658;BME280;13517;59.320;18.042;2022-11-15T01:08:33;101356.75;;;5.79;100.00
25658;BME280;13517;59.320;18.042;2022-11-15T01:11:03;101361.47;;;5.70;100.00
25658;BME280;13517;59.320;18.042;2022-11-15T01:13:32;101381.66;;;5.82;100.00
25658;BME280;13517;59.320;18.042;2022-11-15T01:15:58;101368.44;;;5.76;100.00
25658;BME280;13517;59.320;18.042;2022-11-15T01:18:23;101380.56;;;5.88;100.00
25658;BME280;13517;59.320;18.042;2022-11-15T01:20:49;101387.81;;;5.84;100.00
25658;BME280;13517;59.320;18.042;2022-11-15T01:23:14;101358.88;;;5.69;100.00
25658;BME280;13517;59.320;18.042;2022-11-15T01:25:39;101358.88;;;5.69;100.00
25658;BME280;13517;59.320;18.042;2022-11-15T01:28:05;101365.03;;;5.71;100.00
25658;BME280;13517;59.320;18.042;2022-11-15T01:30:30;101382.91;;;5.70;100.00
25658;BME280;13517;59.320;18.042;2022-11-15T01:32:56;101364.50;;;5.59;100.00
25658;BME280;13517;59.320;18.042;2022-11-15T01:35:21;101342.03;;;5.37;100.00
25658;BME280;13517;59.320;18.042;2022-11-15T01:37:46;101380.09;;;5.48;100.00
25658;BME280;13517;59.320;18.042;2022-11-15T01:40:12;101381.13;;;5.44;100.00
25658;BME280;13517;59.320;18.042;2022-11-15T01:42:37;101394.28;;;5.52;100.00
25658;BME280;13517;59.320;18.042;2022-11-15T01:45:03;101374.19;;;5.37;100.00
25658;BME280;13517;59.320;18.042;2022-11-15T01:47:31;101408.53;;;5.52;100.00
25658;BME280;13517;59.320;18.042;2022-11-15T01:50:29;101351.56;;;5.18;100.00
25658;BME280;13517;59.320;18.042;2022-11-15T01:52:56;101396.25;;;5.45;100.00
25658;BME280;13517;59.320;18.042;2022-11-15T01:55:25;101395.28;;;5.48;100.00
25658;BME280;13517;59.320;18.042;2022-11-15T01:57:54;101349.97;;;5.13;100.00
25658;BME280;13517;59.320;18.042;2022-11-15T02:00:20;101352.44;;;5.19;100.00
25658;BME280;13517;59.320;18.042;2022-11-15T02:02:45;101354.25;;;5.18;100.00
25658;BME280;13517;59.320;18.042;2022-11-15T02:05:11;101326.22;;;5.02;100.00
25658;BME280;13517;59.320;18.042;2022-11-15T02:07:37;101364.72;;;5.26;100.00
25658;BME280;13517;59.320;18.042;2022-11-15T02:10:22;101385.00;;;5.35;100.00
25658;BME280;13517;59.320;18.042;2022-11-15T02:12:49;101394.63;;;5.41;100.00
25658;BME280;13517;59.320;18.042;2022-11-15T02:15:15;101385.69;;;5.40;100.00
25658;BME280;13517;59.320;18.042;2022-11-15T02:30:50;101375.97;;;5.09;100.00
25658;BME280;13517;59.320;18.042;2022-11-15T02:33:28;101395.25;;;5.21;100.00
25658;BME280;13517;59.320;18.042;2022-11-15T02:36:00;101387.53;;;5.10;100.00
25658;BME280;13517;59.320;18.042;2022-11-15T02:39:25;101401.69;;;5.15;100.00
25658;BME280;13517;59.320;18.042;2022-11-15T02:41:45;101407.28;;;5.07;100.00
25658;BME280;13517;59.320;18.042;2022-11-15T02:44:39;101385.34;;;4.94;100.00
25658;BME280;13517;59.320;18.042;2022-11-15T02:47:13;101374.09;;;4.83;100.00
25658;BME280;13517;59.320;18.042;2022-11-15T02:49:53;101390.66;;;4.96;100.00
25658;BME280;13517;59.320;18.042;2022-11-15T02:52:21;101379.06;;;4.95;100.00
25658;BME280;13517;59.320;18.042;2022-11-15T02:54:55;101383.53;;;4.96;100.00
25658;BME280;13517;59.320;18.042;2022-11-15T03:00:04;101393.13;;;5.03;100.00
25658;BME280;13517;59.320;18.042;2022-11-15T03:08:02;101379.38;;;4.84;100.00
25658;BME280;13517;59.320;18.042;2022-11-15T03:13:34;101395.53;;;4.83;100.00
25658;BME280;13517;59.320;18.042;2022-11-15T03:18:38;101411.00;;;4.71;100.00
25658;BME280;13517;59.320;18.042;2022-11-15T03:21:08;101411.03;;;4.70;100.00
25658;BME280;13517;59.320;18.042;2022-11-15T03:23:37;101384.78;;;4.53;100.00
25658;BME280;13517;59.320;18.042;2022-11-15T03:26:05;101403.97;;;4.67;100.00
25658;BME280;13517;59.320;18.042;2022-11-15T03:28:39;101413.31;;;4.54;100.00
25658;BME280;13517;59.320;18.042;2022-11-15T03:31:09;101387.03;;;4.36;100.00
25658;BME280;13517;59.320;18.042;2022-11-15T03:33:55;101407.09;;;4.52;100.00
25658;BME280;13517;59.320;18.042;2022-11-15T03:36:23;101385.97;;;4.42;100.00
25658;BME280;13517;59.320;18.042;2022-11-15T03:38:55;101370.91;;;4.38;100.00
25658;BME280;13517;59.320;18.042;2022-11-15T03:41:31;101398.38;;;4.45;100.00
25658;BME280;13517;59.320;18.042;2022-11-15T03:44:26;101390.50;;;4.40;100.00
25658;BME280;13517;59.320;18.042;2022-11-15T03:47:31;101410.84;;;4.46;100.00
25658;BME280;13517;59.320;18.042;2022-11-15T03:50:12;101415.28;;;4.45;100.00
25658;BME280;13517;59.320;18.042;2022-11-15T03:52:40;101423.16;;;4.52;100.00
25658;BME280;13517;59.320;18.042;2022-11-15T03:55:09;101405.66;;;4.40;100.00
25658;BME280;13517;59.320;18.042;2022-11-15T03:57:35;101395.91;;;4.37;100.00
25658;BME280;13517;59.320;18.042;2022-11-15T04:00:01;101377.28;;;4.34;100.00
25658;BME280;13517;59.320;18.042;2022-11-15T04:02:26;101409.09;;;4.45;100.00
25658;BME280;13517;59.320;18.042;2022-11-15T04:04:53;101410.97;;;4.41;100.00
25658;BME280;13517;59.320;18.042;2022-11-15T04:07:18;101391.59;;;4.33;100.00
25658;BME280;13517;59.320;18.042;2022-11-15T04:09:44;101408.22;;;4.43;100.00
25658;BME280;13517;59.320;18.042;2022-11-15T04:12:37;101384.56;;;4.29;100.00
25658;BME280;13517;59.320;18.042;2022-11-15T04:15:18;101396.34;;;4.21;100.00
25658;BME280;13517;59.320;18.042;2022-11-15T04:17:55;101422.59;;;4.40;100.00
25658;BME280;13517;59.320;18.042;2022-11-15T04:20:26;101424.13;;;4.49;100.00
25658;BME280;13517;59.320;18.042;2022-11-15T04:23:15;101417.81;;;4.52;100.00
25658;BME280;13517;59.320;18.042;2022-11-15T04:26:02;101436.59;;;4.50;100.00
25658;BME280;13517;59.320;18.042;2022-11-15T04:28:28;101415.09;;;4.53;100.00
25658;BME280;13517;59.320;18.042;2022-11-15T04:30:53;101417.75;;;4.55;100.00
25658;BME280;13517;59.320;18.042;2022-11-15T04:33:20;101425.91;;;4.50;100.00
25658;BME280;13517;59.320;18.042;2022-11-15T04:35:46;101436.41;;;4.56;100.00
25658;BME280;13517;59.320;18.042;2022-11-15T04:38:31;101431.78;;;4.63;100.00
25658;BME280;13517;59.320;18.042;2022-11-15T04:40:57;101437.91;;;4.67;100.00
25658;BME280;13517;59.320;18.042;2022-11-15T04:43:22;101398.38;;;4.45;100.00
25658;BME280;13517;59.320;18.042;2022-11-15T04:45:48;101437.13;;;4.63;100.00
25658;BME280;13517;59.320;18.042;2022-11-15T04:48:13;101437.13;;;4.63;100.00
25658;BME280;13517;59.320;18.042;2022-11-15T04:50:38;101409.22;;;4.40;100.00
25658;BME280;13517;59.320;18.042;2022-11-15T04:53:04;101407.38;;;4.42;100.00
25658;BME280;13517;59.320;18.042;2022-11-15T04:55:29;101426.94;;;4.44;100.00
25658;BME280;13517;59.320;18.042;2022-11-15T04:57:59;101441.88;;;4.52;100.00
25658;BME280;13517;59.320;18.042;2022-11-15T05:00:26;101446.38;;;4.51;100.00
25658;BME280;13517;59.320;18.042;2022-11-15T05:02:51;101436.63;;;4.48;100.00
25658;BME280;13517;59.320;18.042;2022-11-15T05:05:36;101442.69;;;4.55;100.00
25658;BME280;13517;59.320;18.042;2022-11-15T05:08:02;101436.38;;;4.58;100.00
25658;BME280;13517;59.320;18.042;2022-11-15T05:10:27;101412.56;;;4.48;100.00
25658;BME280;13517;59.320;18.042;2022-11-15T05:12:52;101440.66;;;4.63;100.00
25658;BME280;13517;59.320;18.042;2022-11-15T05:15:18;101435.38;;;4.62;100.00
25658;BME280;13517;59.320;18.042;2022-11-15T05:17:43;101431.00;;;4.58;100.00
25658;BME280;13517;59.320;18.042;2022-11-15T05:20:09;101437.97;;;4.63;100.00
25658;BME280;13517;59.320;18.042;2022-11-15T05:22:35;101453.97;;;4.67;100.00
25658;BME280;13517;59.320;18.042;2022-11-15T05:25:00;101435.19;;;4.68;100.00
25658;BME280;13517;59.320;18.042;2022-11-15T05:27:26;101426.31;;;4.66;100.00
25658;BME280;13517;59.320;18.042;2022-11-15T05:29:51;101423.91;;;4.57;100.00
25658;BME280;13517;59.320;18.042;2022-11-15T05:32:17;101401.91;;;4.45;100.00
25658;BME280;13517;59.320;18.042;2022-11-15T05:34:43;101442.31;;;4.69;100.00
25658;BME280;13517;59.320;18.042;2022-11-15T05:37:09;101468.16;;;4.70;100.00
25658;BME280;13517;59.320;18.042;2022-11-15T05:39:34;101451.16;;;4.71;100.00
25658;BME280;13517;59.320;18.042;2022-11-15T05:42:12;101431.66;;;4.66;100.00
25658;BME280;13517;59.320;18.042;2022-11-15T05:44:44;101419.50;;;4.56;100.00
25658;BME280;13517;59.320;18.042;2022-11-15T05:47:15;101451.06;;;4.74;100.00
25658;BME280;13517;59.320;18.042;2022-11-15T05:49:43;101442.38;;;4.66;100.00
25658;BME280;13517;59.320;18.042;2022-11-15T05:52:13;101439.66;;;4.68;100.00
25658;BME280;13517;59.320;18.042;2022-11-15T05:54:40;101446.00;;;4.63;100.00
25658;BME280;13517;59.320;18.042;2022-11-15T05:57:06;101466.88;;;4.84;100.00
25658;BME280;13517;59.320;18.042;2022-11-15T05:59:32;101478.50;;;4.83;100.00
25658;BME280;13517;59.320;18.042;2022-11-15T06:01:58;101468.63;;;4.85;100.00
25658;BME280;13517;59.320;18.042;2022-11-15T06:04:24;101464.22;;;4.82;100.00
25658;BME280;13517;59.320;18.042;2022-11-15T06:06:49;101459.84;;;4.80;100.00
25658;BME280;13517;59.320;18.042;2022-11-15T06:09:15;101470.47;;;4.83;100.00
25658;BME280;13517;59.320;18.042;2022-11-15T06:11:40;101454.50;;;4.80;100.00
25658;BME280;13517;59.320;18.042;2022-11-15T06:14:05;101479.06;;;4.94;100.00
25658;BME280;13517;59.320;18.042;2022-11-15T06:16:31;101446.56;;;4.76;100.00
25658;BME280;13517;59.320;18.042;2022-11-15T06:18:56;101479.81;;;4.99;100.00
25658;BME280;13517;59.320;18.042;2022-11-15T06:21:22;101470.25;;;4.90;100.00
25658;BME280;13517;59.320;18.042;2022-11-15T06:23:48;101440.13;;;4.82;100.00
25658;BME280;13517;59.320;18.042;2022-11-15T06:26:13;101473.63;;;4.97;100.00
25658;BME280;13517;59.320;18.042;2022-11-15T06:28:39;101471.97;;;4.93;100.00
25658;BME280;13517;59.320;18.042;2022-11-15T06:31:09;101498.28;;;5.09;100.00
25658;BME280;13517;59.320;18.042;2022-11-15T06:33:36;101500.03;;;5.10;100.00
25658;BME280;13517;59.320;18.042;2022-11-15T06:36:03;101457.09;;;4.83;100.00
25658;BME280;13517;59.320;18.042;2022-11-15T06:38:28;101510.56;;;5.16;100.00
25658;BME280;13517;59.320;18.042;2022-11-15T06:40:54;101489.13;;;5.16;100.00
25658;BME280;13517;59.320;18.042;2022-11-15T06:43:19;101493.53;;;5.18;100.00
25658;BME280;13517;59.320;18.042;2022-11-15T06:45:45;101512.75;;;5.33;100.00
25658;BME280;13517;59.320;18.042;2022-11-15T06:48:10;101515.38;;;5.35;100.00
25658;BME280;13517;59.320;18.042;2022-11-15T06:50:35;101489.84;;;5.23;100.00
25658;BME280;13517;59.320;18.042;2022-11-15T06:53:03;101528.66;;;5.39;100.00
25658;BME280;13517;59.320;18.042;2022-11-15T06:55:29;101526.75;;;5.43;100.00
25658;BME280;13517;59.320;18.042;2022-11-15T06:57:54;101486.13;;;5.27;100.00
25658;BME280;13517;59.320;18.042;2022-11-15T07:00:21;101473.44;;;5.34;100.00
25658;BME280;13517;59.320;18.042;2022-11-15T07:02:47;101521.09;;;5.52;100.00
25658;BME280;13517;59.320;18.042;2022-11-15T07:05:13;101534.56;;;5.51;100.00
25658;BME280;13517;59.320;18.042;2022-11-15T07:07:39;101541.81;;;5.47;100.00
25658;BME280;13517;59.320;18.042;2022-11-15T07:10:05;101508.28;;;5.34;100.00
25658;BME280;13517;59.320;18.042;2022-11-15T07:12:31;101530.56;;;5.34;100.00
25658;BME280;13517;59.320;18.042;2022-11-15T07:14:56;101526.25;;;5.30;100.00
25658;BME280;13517;59.320;18.042;2022-11-15T07:17:21;101513.81;;;5.27;100.00
25658;BME280;13517;59.320;18.042;2022-11-15T07:19:47;101519.16;;;5.29;100.00
25658;BME280;13517;59.320;18.042;2022-11-15T07:22:12;101535.84;;;5.37;100.00
25658;BME280;13517;59.320;18.042;2022-11-15T07:24:38;101510.31;;;5.25;100.00
25658;BME280;13517;59.320;18.042;2022-11-15T07:27:03;101521.56;;;5.37;100.00
25658;BME280;13517;59.320;18.042;2022-11-15T07:29:28;101520.84;;;5.31;100.00
25658;BME280;13517;59.320;18.042;2022-11-15T07:31:54;101522.50;;;5.36;100.00
25658;BME280;13517;59.320;18.042;2022-11-15T07:34:19;101517.25;;;5.32;100.00
25658;BME280;13517;59.320;18.042;2022-11-15T07:36:45;101524.19;;;5.40;100.00
25658;BME280;13517;59.320;18.042;2022-11-15T07:39:10;101514.56;;;5.32;100.00
25658;BME280;13517;59.320;18.042;2022-11-15T07:41:37;101508.28;;;5.34;100.00
25658;BME280;13517;59.320;18.042;2022-11-15T07:44:03;101520.75;;;5.35;100.00
25658;BME280;13517;59.320;18.042;2022-11-15T07:46:29;101519.75;;;5.39;100.00
25658;BME280;13517;59.320;18.042;2022-11-15T07:48:55;101497.19;;;5.16;100.00
25658;BME280;13517;59.320;18.042;2022-11-15T07:51:20;101541.47;;;5.28;100.00
25658;BME280;13517;59.320;18.042;2022-11-15T07:53:45;101515.00;;;5.17;100.00
25658;BME280;13517;59.320;18.042;2022-11-15T07:56:11;101529.00;;;5.27;100.00
25658;BME280;13517;59.320;18.042;2022-11-15T07:58:36;101523.78;;;5.22;100.00
25658;BME280;13517;59.320;18.042;2022-11-15T08:01:06;101526.63;;;5.16;100.00
25658;BME280;13517;59.320;18.042;2022-11-15T08:03:32;101538.94;;;5.23;100.00
25658;BME280;13517;59.320;18.042;2022-11-15T08:05:58;101546.03;;;5.24;100.00
25658;BME280;13517;59.320;18.042;2022-11-15T08:08:23;101556.69;;;5.27;100.00
25658;BME280;13517;59.320;18.042;2022-11-15T08:10:49;101554.31;;;5.16;100.00
25658;BME280;13517;59.320;18.042;2022-11-15T08:13:14;101560.13;;;5.32;100.00
25658;BME280;13517;59.320;18.042;2022-11-15T08:15:40;101549.41;;;5.32;100.00
25658;BME280;13517;59.320;18.042;2022-11-15T08:18:12;101568.09;;;5.34;100.00
25658;BME280;13517;59.320;18.042;2022-11-15T08:20:38;101547.81;;;5.25;100.00
25658;BME280;13517;59.320;18.042;2022-11-15T08:23:04;101560.00;;;5.36;100.00
25658;BME280;13517;59.320;18.042;2022-11-15T08:25:31;101566.25;;;5.36;100.00
25658;BME280;13517;59.320;18.042;2022-11-15T08:28:00;101560.97;;;5.33;100.00
25658;BME280;13517;59.320;18.042;2022-11-15T08:30:26;101559.44;;;5.24;100.00
25658;BME280;13517;59.320;18.042;2022-11-15T08:32:52;101575.81;;;5.13;100.00
25658;BME280;13517;59.320;18.042;2022-11-15T08:35:19;101571.25;;;5.17;100.00
25658;BME280;13517;59.320;18.042;2022-11-15T08:37:45;101566.88;;;5.14;100.00
25658;BME280;13517;59.320;18.042;2022-11-15T08:40:10;101556.34;;;5.08;100.00
25658;BME280;13517;59.320;18.042;2022-11-15T08:42:36;101566.47;;;5.28;100.00
25658;BME280;13517;59.320;18.042;2022-11-15T08:45:02;101569.91;;;5.34;100.00
25658;BME280;13517;59.320;18.042;2022-11-15T08:47:28;101553.19;;;5.25;100.00
25658;BME280;13517;59.320;18.042;2022-11-15T08:49:54;101558.53;;;5.25;100.00
25658;BME280;13517;59.320;18.042;2022-11-15T08:52:19;101575.16;;;5.37;100.00
25658;BME280;13517;59.320;18.042;2022-11-15T08:54:44;101571.63;;;5.36;100.00
25658;BME280;13517;59.320;18.042;2022-11-15T08:57:10;101580.53;;;5.37;100.00
25658;BME280;13517;59.320;18.042;2022-11-15T08:59:36;101581.75;;;5.25;100.00
25658;BME280;13517;59.320;18.042;2022-11-15T09:39:02;101610.53;;;5.80;100.00
25658;BME280;13517;59.320;18.042;2022-11-15T09:46:53;101605.81;;;5.88;100.00
25658;BME280;13517;59.320;18.042;2022-11-15T09:49:22;101614.75;;;5.89;100.00
25658;BME280;13517;59.320;18.042;2022-11-15T09:51:50;101625.41;;;5.90;100.00
25658;BME280;13517;59.320;18.042;2022-11-15T09:54:37;101626.19;;;5.94;100.00
25658;BME280;13517;59.320;18.042;2022-11-15T09:57:12;101627.88;;;5.98;100.00
25658;BME280;13517;59.320;18.042;2022-11-15T10:04:57;101617.22;;;5.95;100.00
25658;BME280;13517;59.320;18.042;2022-11-15T10:10:04;101636.72;;;6.00;100.00
25658;BME280;13517;59.320;18.042;2022-11-15T10:12:34;101601.34;;;5.89;100.00
25658;BME280;13517;59.320;18.042;2022-11-15T10:15:06;101617.03;;;6.01;100.00
25658;BME280;13517;59.320;18.042;2022-11-15T10:25:40;101627.88;;;5.98;100.00
25658;BME280;13517;59.320;18.042;2022-11-15T10:30:40;101611.84;;;5.95;100.00
25658;BME280;13517;59.320;18.042;2022-11-15T10:33:18;101606.28;;;6.01;100.00
25658;BME280;13517;59.320;18.042;2022-11-15T10:35:45;101609.66;;;6.09;100.00
25658;BME280;13517;59.320;18.042;2022-11-15T10:38:11;101629.34;;;6.08;100.00
25658;BME280;13517;59.320;18.042;2022-11-15T10:40:39;101602.72;;;6.02;100.00
25658;BME280;13517;59.320;18.042;2022-11-15T10:43:16;101589.56;;;5.93;100.00
25658;BME280;13517;59.320;18.042;2022-11-15T10:45:43;101637.22;;;6.15;100.00
25658;BME280;13517;59.320;18.042;2022-11-15T10:50:37;101615.91;;;6.10;100.00
25658;BME280;13517;59.320;18.042;2022-11-15T10:53:03;101596.59;;;5.97;100.00
25658;BME280;13517;59.320;18.042;2022-11-15T10:55:31;101623.91;;;6.11;100.00
25658;BME280;13517;59.320;18.042;2022-11-15T11:00:53;101607.81;;;6.11;100.00
25658;BME280;13517;59.320;18.042;2022-11-15T11:03:33;101612.47;;;6.05;100.00
25658;BME280;13517;59.320;18.042;2022-11-15T11:06:15;101606.25;;;6.04;100.00
25658;BME280;13517;59.320;18.042;2022-11-15T11:08:56;101585.19;;;5.90;100.00
25658;BME280;13517;59.320;18.042;2022-11-15T11:11:22;101606.13;;;6.07;100.00
25658;BME280;13517;59.320;18.042;2022-11-15T11:13:48;101588.50;;;5.98;100.00
25658;BME280;13517;59.320;18.042;2022-11-15T11:19:08;101632.94;;;6.09;100.00
25658;BME280;13517;59.320;18.042;2022-11-15T11:24:26;101611.53;;;6.06;100.00
25658;BME280;13517;59.320;18.042;2022-11-15T11:27:03;101604.94;;;6.18;100.00
25658;BME280;13517;59.320;18.042;2022-11-15T11:47:32;101603.91;;;5.92;100.00
25658;BME280;13517;59.320;18.042;2022-11-15T11:50:19;101617.44;;;5.89;100.00
25658;BME280;13517;59.320;18.042;2022-11-15T11:53:25;101623.59;;;5.92;100.00
25658;BME280;13517;59.320;18.042;2022-11-15T11:55:58;101619.97;;;5.93;100.00
25658;BME280;13517;59.320;18.042;2022-11-15T12:01:04;101626.38;;;5.88;100.00
25658;BME280;13517;59.320;18.042;2022-11-15T12:04:09;101618.34;;;5.88;100.00
25658;BME280;13517;59.320;18.042;2022-11-15T12:06:42;101618.22;;;5.92;100.00
25658;BME280;13517;59.320;18.042;2022-11-15T12:16:55;101605.69;;;5.63;100.00
25658;BME280;13517;59.320;18.042;2022-11-15T12:19:22;101610.94;;;5.66;100.00
25658;BME280;13517;59.320;18.042;2022-11-15T12:22:10;101617.97;;;5.70;100.00
25658;BME280;13517;59.320;18.042;2022-11-15T12:24:44;101596.03;;;5.57;100.00
25658;BME280;13517;59.320;18.042;2022-11-15T12:27:19;101634.13;;;5.67;100.00
25658;BME280;13517;59.320;18.042;2022-11-15T12:29:51;101609.63;;;5.51;100.00
25658;BME280;13517;59.320;18.042;2022-11-15T12:32:29;101609.16;;;5.66;100.00
25658;BME280;13517;59.320;18.042;2022-11-15T12:34:56;101615.50;;;5.62;100.00
25658;BME280;13517;59.320;18.042;2022-11-15T12:37:33;101573.44;;;5.34;100.00
25658;BME280;13517;59.320;18.042;2022-11-15T12:45:00;101618.06;;;5.67;100.00
25658;BME280;13517;59.320;18.042;2022-11-15T12:47:26;101625.44;;;5.58;100.00
25658;BME280;13517;59.320;18.042;2022-11-15T12:49:52;101621.78;;;5.63;100.00
25658;BME280;13517;59.320;18.042;2022-11-15T12:52:19;101619.88;;;5.66;100.00
25658;BME280;13517;59.320;18.042;2022-11-15T12:54:53;101615.66;;;5.57;100.00
25658;BME280;13517;59.320;18.042;2022-11-15T12:59:55;101622.88;;;5.55;100.00
25658;BME280;13517;59.320;18.042;2022-11-15T13:17:38;101616.00;;;5.45;100.00
25658;BME280;13517;59.320;18.042;2022-11-15T13:23:12;101593.53;;;5.19;100.00
25658;BME280;13517;59.320;18.042;2022-11-15T13:28:33;101619.13;;;5.29;100.00
25658;BME280;13517;59.320;18.042;2022-11-15T13:31:13;101629.84;;;5.29;100.00
25658;BME280;13517;59.320;18.042;2022-11-15T13:33:41;101598.97;;;5.16;100.00
25658;BME280;13517;59.320;18.042;2022-11-15T13:36:12;101638.06;;;5.23;100.00
25658;BME280;13517;59.320;18.042;2022-11-15T13:38:42;101610.53;;;5.18;100.00
25658;BME280;13517;59.320;18.042;2022-11-15T13:41:20;101610.53;;;5.18;100.00
25658;BME280;13517;59.320;18.042;2022-11-15T13:43:46;101612.72;;;5.03;100.00
25658;BME280;13517;59.320;18.042;2022-11-15T13:46:19;101636.56;;;5.13;100.00
25658;BME280;13517;59.320;18.042;2022-11-15T13:48:52;101612.00;;;4.97;100.00
25658;BME280;13517;59.320;18.042;2022-11-15T13:53:52;101634.16;;;5.03;100.00
25658;BME280;13517;59.320;18.042;2022-11-15T13:56:20;101626.19;;;5.00;100.00
25658;BME280;13517;59.320;18.042;2022-11-15T13:58:46;101635.44;;;4.87;100.00
25658;BME280;13517;59.320;18.042;2022-11-15T14:01:19;101638.75;;;4.98;100.00
25658;BME280;13517;59.320;18.042;2022-11-15T14:03:57;101639.72;;;4.94;100.00
25658;BME280;13517;59.320;18.042;2022-11-15T14:06:25;101648.63;;;4.96;100.00
25658;BME280;13517;59.320;18.042;2022-11-15T14:11:35;101627.72;;;4.74;100.00
25658;BME280;13517;59.320;18.042;2022-11-15T14:14:11;101638.13;;;4.87;100.00
25658;BME280;13517;59.320;18.042;2022-11-15T14:16:41;101638.13;;;4.87;100.00
25658;BME280;13517;59.320;18.042;2022-11-15T14:19:56;101634.59;;;4.86;100.00
25658;BME280;13517;59.320;18.042;2022-11-15T14:22:24;101644.50;;;4.83;100.00
25658;BME280;13517;59.320;18.042;2022-11-15T14:25:20;101648.84;;;4.87;100.00
25658;BME280;13517;59.320;18.042;2022-11-15T14:28:15;101634.47;;;4.91;100.00
25658;BME280;13517;59.320;18.042;2022-11-15T14:30:41;101648.72;;;4.91;100.00
25658;BME280;13517;59.320;18.042;2022-11-15T14:33:32;101641.56;;;4.92;100.00
25658;BME280;13517;59.320;18.042;2022-11-15T14:36:05;101647.97;;;4.86;100.00
25658;BME280;13517;59.320;18.042;2022-11-15T14:38:32;101639.72;;;4.94;100.00
25658;BME280;13517;59.320;18.042;2022-11-15T14:40:57;101644.16;;;4.95;100.00
25658;BME280;13517;59.320;18.042;2022-11-15T14:43:23;101656.84;;;4.88;100.00
25658;BME280;13517;59.320;18.042;2022-11-15T14:45:49;101642.78;;;4.80;100.00
25658;BME280;13517;59.320;18.042;2022-11-15T14:48:14;101631.28;;;4.76;100.00
25658;BME280;13517;59.320;18.042;2022-11-15T14:50:40;101650.59;;;4.88;100.00
25658;BME280;13517;59.320;18.042;2022-11-15T14:53:05;101637.34;;;4.82;100.00
25658;BME280;13517;59.320;18.042;2022-11-15T14:55:33;101658.47;;;4.94;100.00
25658;BME280;13517;59.320;18.042;2022-11-15T14:58:02;101641.03;;;4.79;100.00
25658;BME280;13517;59.320;18.042;2022-11-15T15:00:31;101621.53;;;4.72;100.00
25658;BME280;13517;59.320;18.042;2022-11-15T15:02:58;101653.69;;;4.71;100.00
25658;BME280;13517;59.320;18.042;2022-11-15T15:05:34;101627.16;;;4.63;100.00
25658;BME280;13517;59.320;18.042;2022-11-15T15:08:02;101652.69;;;4.76;100.00
25658;BME280;13517;59.320;18.042;2022-11-15T15:10:34;101651.78;;;4.76;100.00
25658;BME280;13517;59.320;18.042;2022-11-15T15:13:00;101656.19;;;4.79;100.00
25658;BME280;13517;59.320;18.042;2022-11-15T15:15:32;101643.72;;;4.77;100.00
25658;BME280;13517;59.320;18.042;2022-11-15T15:17:58;101638.56;;;4.70;100.00
25658;BME280;13517;59.320;18.042;2022-11-15T15:20:23;101647.25;;;4.80;100.00
25658;BME280;13517;59.320;18.042;2022-11-15T15:22:49;101629.06;;;4.58;100.00
25658;BME280;13517;59.320;18.042;2022-11-15T15:25:23;101664.34;;;4.74;100.00
25658;BME280;13517;59.320;18.042;2022-11-15T15:27:52;101658.97;;;4.75;100.00
25658;BME280;13517;59.320;18.042;2022-11-15T15:30:17;101657.41;;;4.65;100.00
25658;BME280;13517;59.320;18.042;2022-11-15T15:32:43;101675.03;;;4.75;100.00